< Cyclone 201727 2017 Season
Cyclone 201729 (Frances)
General InformationTrack Information on Google MapsDetailed Wind InformationList of All Images || ResourceGoogle EarthGE AnimationAtom FeedGeoJSON
Detalied Best Track (Time Zone = UTC)
Year Month Day Hour Lat. Long. Pressure (hPa) Wind (kt) Class Image Chart
2017 4 24 00 -7.7 136.5 1008 15 2 Image --
2017 4 24 06 -8.0 135.3 1006 20 2 Image --
2017 4 24 12 -8.0 134.5 1008 20 2 Image --
2017 4 24 18 -7.9 133.9 1008 20 2 Image --
2017 4 25 00 -7.4 133.2 1009 20 2 Image --
2017 4 25 06 -7.4 132.9 1006 20 2 Image --
2017 4 25 12 -7.2 132.6 1008 20 2 Image --
2017 4 25 18 -7.3 132.1 1006 25 2 Image --
2017 4 26 00 -7.6 131.5 1006 25 2 Image --
2017 4 26 06 -7.6 131.7 1003 25 2 Image --
2017 4 26 12 -8.4 131.4 1005 25 2 Image --
2017 4 26 18 -8.7 130.7 1004 25 2 Image --
2017 4 27 00 -9.9 130.1 1002 30 2 Image --
2017 4 27 06 -10.4 129.2 997 35 3 Image --
2017 4 27 12 -10.6 128.3 994 45 3 Image --
2017 4 27 18 -10.9 127.5 993 50 4 Image --
2017 4 28 00 -11.2 126.4 990 55 4 Image --
2017 4 28 06 -11.7 125.6 983 65 5 Image --
2017 4 28 12 -12.1 125.1 981 65 5 Image --
2017 4 28 18 -12.3 124.4 980 65 5 Image --
2017 4 29 00 -12.6 124.0 982 65 5 Image --
2017 4 29 06 -12.9 123.8 989 55 4 Image --
2017 4 29 12 -12.9 123.2 992 50 4 Image --
2017 4 29 18 -13.0 122.6 1000 35 3 Image --
2017 4 30 00 -13.3 122.2 1002 35 3 Image --
< Cyclone 201727 2017 Season

Help